Time;durP1;ratioP1;P1;durP2;ratioP2;P2;SDS_P1;SDS_P2;PMS_P1;PMS_P2;Temp;Humidity;BMP_temperature;BMP_pressure;BME280_temperature;BME280_humidity;BME280_pressure;Samples;Min_cycle;Max_cycle;Signal;HPM_P1;HPM_P2
2021/04/24 00:02:13;;;;;;;2.90;2.70;;;21.50;40.30;;;;;;5003708;28;20421;-69
2021/04/24 00:04:39;;;;;;;2.65;2.45;;;21.50;40.30;;;;;;5000904;28;20422;-70
2021/04/24 00:07:06;;;;;;;3.40;3.10;;;21.40;40.20;;;;;;4997685;28;20447;-70
2021/04/24 00:09:33;;;;;;;5.67;2.90;;;21.40;40.20;;;;;;5005514;28;20423;-70
2021/04/24 00:11:59;;;;;;;2.70;2.50;;;21.40;40.20;;;;;;5006211;28;20413;-70
2021/04/24 00:14:25;;;;;;;3.05;2.85;;;21.40;40.20;;;;;;5004356;28;20431;-70
2021/04/24 00:16:51;;;;;;;3.05;2.70;;;21.30;40.30;;;;;;5006073;28;20415;-71
2021/04/24 00:19:18;;;;;;;2.70;2.50;;;21.30;40.30;;;;;;4995675;28;20433;-70
2021/04/24 00:21:44;;;;;;;3.20;2.90;;;21.30;40.50;;;;;;5006323;28;20433;-70
2021/04/24 00:24:10;;;;;;;3.80;2.88;;;21.30;40.40;;;;;;5005514;28;20467;-69
2021/04/24 00:26:37;;;;;;;3.45;2.78;;;21.30;40.50;;;;;;5006079;28;20424;-71
2021/04/24 00:29:04;;;;;;;4.93;2.60;;;21.20;40.40;;;;;;5005258;28;20419;-71
2021/04/24 00:31:30;;;;;;;3.00;2.80;;;21.20;40.50;;;;;;5005808;28;20430;-72
2021/04/24 00:33:56;;;;;;;3.40;3.00;;;21.20;40.40;;;;;;5005169;28;20410;-71
2021/04/24 00:36:23;;;;;;;2.53;2.33;;;21.20;40.60;;;;;;5004634;28;20816;-70
2021/04/24 00:38:49;;;;;;;3.25;2.80;;;21.20;40.60;;;;;;5007430;28;20416;-70
2021/04/24 00:41:16;;;;;;;3.13;2.90;;;21.30;40.60;;;;;;5009912;28;20483;-71
2021/04/24 00:43:43;;;;;;;3.03;2.72;;;21.30;40.60;;;;;;5009894;28;20781;-71
2021/04/24 00:46:09;;;;;;;4.78;3.20;;;21.30;41.30;;;;;;5011620;28;20418;-71
2021/04/24 00:48:36;;;;;;;3.60;2.87;;;21.30;40.40;;;;;;5011566;28;20417;-71
2021/04/24 00:51:02;;;;;;;3.10;2.88;;;21.40;40.60;;;;;;5008315;28;20414;-72
2021/04/24 00:53:28;;;;;;;3.15;2.60;;;21.40;40.40;;;;;;5008495;28;20411;-72
2021/04/24 00:55:54;;;;;;;2.97;2.78;;;21.30;40.50;;;;;;5010758;28;20910;-72
2021/04/24 00:58:20;;;;;;;3.00;2.80;;;21.30;40.50;;;;;;5005495;28;20998;-72
2021/04/24 01:00:48;;;;;;;3.10;2.90;;;21.30;40.60;;;;;;5009535;28;20781;-71
2021/04/24 01:03:14;;;;;;;3.08;2.78;;;21.30;40.60;;;;;;5014016;28;20424;-72
2021/04/24 01:05:41;;;;;;;2.70;2.50;;;21.30;40.60;;;;;;5033203;28;20431;-72
2021/04/24 01:08:08;;;;;;;2.80;2.60;;;21.30;40.60;;;;;;5029467;28;20428;-72
2021/04/24 01:10:35;;;;;;;2.60;2.40;;;21.30;40.50;;;;;;5020305;28;20492;-69
2021/04/24 01:13:01;;;;;;;2.70;2.50;;;21.20;40.40;;;;;;5003375;28;20431;-71
2021/04/24 01:15:27;;;;;;;2.70;2.60;;;21.20;40.40;;;;;;5019533;28;20422;-71
2021/04/24 01:17:54;;;;;;;2.60;2.40;;;21.20;40.50;;;;;;4998362;28;20423;-71
2021/04/24 01:20:20;;;;;;;3.28;3.08;;;21.20;40.40;;;;;;4995971;28;20423;-70
2021/04/24 01:22:48;;;;;;;2.80;2.70;;;21.20;40.40;;;;;;4999974;28;20417;-71
2021/04/24 01:25:15;;;;;;;2.90;2.70;;;21.20;40.40;;;;;;5000247;28;20416;-71
2021/04/24 01:27:41;;;;;;;2.72;2.53;;;21.20;40.50;;;;;;5002134;28;20435;-71
2021/04/24 01:30:09;;;;;;;3.08;2.88;;;21.20;40.50;;;;;;4998932;28;20421;-70
2021/04/24 01:32:35;;;;;;;2.50;2.40;;;21.20;40.50;;;;;;5008237;28;20957;-71
2021/04/24 01:35:01;;;;;;;2.60;2.40;;;21.20;40.50;;;;;;5010001;28;20419;-71
2021/04/24 01:37:28;;;;;;;2.80;2.60;;;21.20;40.50;;;;;;5009814;28;20999;-70
2021/04/24 01:39:55;;;;;;;2.40;2.30;;;21.20;40.60;;;;;;5010635;28;20426;-71
2021/04/24 01:42:21;;;;;;;2.47;2.33;;;21.30;40.50;;;;;;5008662;28;20430;-72
2021/04/24 01:44:47;;;;;;;2.40;2.30;;;21.20;40.50;;;;;;5007385;28;20548;-71
2021/04/24 01:47:13;;;;;;;2.45;2.22;;;21.30;40.60;;;;;;5010055;28;20416;-72
2021/04/24 01:49:39;;;;;;;2.53;2.42;;;21.30;40.50;;;;;;5007949;28;20421;-71
2021/04/24 01:52:05;;;;;;;2.90;2.70;;;21.30;40.40;;;;;;5007633;28;20419;-72
2021/04/24 01:54:31;;;;;;;3.10;2.80;;;21.30;40.50;;;;;;5008423;28;20469;-71
2021/04/24 01:56:58;;;;;;;2.40;2.10;;;21.30;40.60;;;;;;4994224;28;20431;-72
2021/04/24 01:59:26;;;;;;;2.97;2.70;;;21.30;40.70;;;;;;5009633;28;20423;-70
2021/04/24 02:01:54;;;;;;;2.45;2.20;;;21.20;40.50;;;;;;5008476;28;20411;-71
2021/04/24 02:04:21;;;;;;;2.47;2.30;;;21.20;40.40;;;;;;5004482;28;20494;-70
2021/04/24 02:06:47;;;;;;;2.58;2.47;;;21.20;40.50;;;;;;5003323;28;20431;-70
2021/04/24 02:09:15;;;;;;;4.38;2.30;;;21.20;40.60;;;;;;5007890;28;20475;-71
2021/04/24 02:12:03;;;;;;;2.63;2.42;;;21.20;40.50;;;;;;5006272;28;20425;-72
2021/04/24 02:14:30;;;;;;;2.22;2.13;;;21.20;40.50;;;;;;4996513;28;20418;-70
2021/04/24 02:16:56;;;;;;;2.47;2.38;;;21.20;40.50;;;;;;5008385;28;20799;-71
2021/04/24 02:19:22;;;;;;;2.72;2.53;;;21.20;40.40;;;;;;5005808;28;20420;-70
2021/04/24 02:21:48;;;;;;;3.92;2.47;;;21.20;41.60;;;;;;5007231;28;20952;-71
2021/04/24 02:24:14;;;;;;;3.20;2.40;;;21.20;41.40;;;;;;5007647;28;20435;-71
2021/04/24 02:26:40;;;;;;;4.63;2.90;;;21.20;40.60;;;;;;5007017;28;20475;-71
2021/04/24 02:29:07;;;;;;;2.78;2.10;;;21.20;40.50;;;;;;5007274;28;20429;-71
2021/04/24 02:31:34;;;;;;;2.20;2.10;;;21.30;40.60;;;;;;4995879;28;20445;-68
2021/04/24 02:34:00;;;;;;;3.17;2.40;;;21.30;40.50;;;;;;5004703;28;20419;-71
2021/04/24 02:36:26;;;;;;;4.00;2.80;;;21.30;40.50;;;;;;5008741;28;20415;-71
2021/04/24 02:38:52;;;;;;;2.10;1.90;;;21.20;40.70;;;;;;5011065;28;20410;-71
2021/04/24 02:41:19;;;;;;;2.50;2.30;;;21.20;40.60;;;;;;4999018;28;20421;-71
2021/04/24 02:43:45;;;;;;;4.30;2.20;;;21.20;40.50;;;;;;4998355;28;20944;-71
2021/04/24 02:46:12;;;;;;;2.37;2.20;;;21.20;40.60;;;;;;5000287;28;20421;-71
2021/04/24 02:48:38;;;;;;;2.38;2.28;;;21.20;40.70;;;;;;4997786;28;20421;-72
2021/04/24 02:51:05;;;;;;;2.10;2.00;;;21.20;40.70;;;;;;4997752;28;20421;-71
2021/04/24 02:53:31;;;;;;;2.10;2.00;;;21.20;40.80;;;;;;4997128;28;21050;-71
2021/04/24 02:55:57;;;;;;;2.15;2.05;;;21.20;40.60;;;;;;5007423;28;20415;-71
2021/04/24 02:58:23;;;;;;;2.83;2.63;;;21.20;40.70;;;;;;5005127;28;20421;-70
2021/04/24 03:00:49;;;;;;;2.30;2.10;;;21.20;40.70;;;;;;5017253;28;20429;-70
2021/04/24 03:03:16;;;;;;;1.90;1.80;;;21.20;40.70;;;;;;5002688;28;20425;-70
2021/04/24 03:05:43;;;;;;;1.80;1.70;;;21.20;40.50;;;;;;5006179;28;20423;-70
2021/04/24 03:08:09;;;;;;;1.80;1.70;;;21.20;40.80;;;;;;5012437;28;20432;-71
2021/04/24 03:10:36;;;;;;;2.03;1.73;;;21.20;40.70;;;;;;5007325;28;20815;-70
2021/04/24 03:13:03;;;;;;;3.22;2.28;;;21.20;40.60;;;;;;5006842;28;20857;-71
2021/04/24 03:15:29;;;;;;;3.08;1.90;;;21.20;40.60;;;;;;5007104;28;20427;-70
2021/04/24 03:17:55;;;;;;;2.20;2.00;;;21.20;40.50;;;;;;4988819;28;20495;-69
2021/04/24 03:20:22;;;;;;;2.10;2.00;;;21.30;40.50;;;;;;5006750;28;20417;-70
2021/04/24 03:22:48;;;;;;;1.90;1.80;;;21.30;40.60;;;;;;5005708;28;20479;-71
2021/04/24 03:25:15;;;;;;;2.05;1.88;;;21.30;40.50;;;;;;5001834;28;20413;-71
2021/04/24 03:27:41;;;;;;;3.40;1.80;;;21.30;40.50;;;;;;5006869;28;20424;-71
2021/04/24 03:30:09;;;;;;;2.10;2.00;;;21.30;40.50;;;;;;5006075;28;20931;-71
2021/04/24 03:32:35;;;;;;;1.80;1.70;;;21.30;40.40;;;;;;5006709;28;20419;-71
2021/04/24 03:35:01;;;;;;;2.17;1.98;;;21.30;40.50;;;;;;5005685;28;20407;-70
2021/04/24 03:37:28;;;;;;;2.20;1.80;;;21.30;40.40;;;;;;5004813;28;20459;-70
2021/04/24 03:39:55;;;;;;;3.03;1.80;;;21.30;40.60;;;;;;5007006;28;20410;-71
2021/04/24 03:42:21;;;;;;;2.03;1.92;;;21.30;40.70;;;;;;5006964;28;20789;-70
2021/04/24 03:44:47;;;;;;;2.05;1.75;;;21.20;40.80;;;;;;5002778;28;21179;-70
2021/04/24 03:47:13;;;;;;;2.33;2.03;;;21.20;40.60;;;;;;5006402;28;20849;-70
2021/04/24 03:49:39;;;;;;;1.90;1.80;;;21.20;40.80;;;;;;5006006;28;20424;-71
2021/04/24 03:52:06;;;;;;;2.20;1.70;;;21.20;40.70;;;;;;5003600;28;20434;-71
2021/04/24 03:54:33;;;;;;;1.90;1.80;;;21.20;40.70;;;;;;5003851;28;21024;-72
2021/04/24 03:56:59;;;;;;;2.40;2.20;;;21.10;40.60;;;;;;5005721;28;20414;-70
2021/04/24 03:59:26;;;;;;;2.20;2.10;;;21.20;40.70;;;;;;5006675;28;20609;-71
2021/04/24 04:01:52;;;;;;;2.85;1.90;;;21.20;40.80;;;;;;5006670;28;20980;-70
2021/04/24 04:04:18;;;;;;;1.60;1.50;;;21.10;40.70;;;;;;5006529;28;20436;-70
2021/04/24 04:06:44;;;;;;;2.13;2.00;;;21.10;40.20;;;;;;5000971;28;20424;-71
2021/04/24 04:09:10;;;;;;;1.90;1.70;;;21.20;40.90;;;;;;5005892;28;20412;-70
2021/04/24 04:11:37;;;;;;;2.40;1.60;;;21.20;40.70;;;;;;5005705;28;20423;-71
2021/04/24 04:14:04;;;;;;;3.38;1.50;;;21.20;40.70;;;;;;5003614;28;20973;-72
2021/04/24 04:16:30;;;;;;;1.80;1.70;;;21.20;40.80;;;;;;5006824;28;21609;-72
2021/04/24 04:18:56;;;;;;;1.90;1.80;;;21.20;40.70;;;;;;5006393;28;20419;-70
2021/04/24 04:21:22;;;;;;;1.85;1.75;;;21.20;40.60;;;;;;5006425;28;20422;-71
2021/04/24 04:23:48;;;;;;;2.50;1.70;;;21.20;40.70;;;;;;5005278;28;20417;-71
2021/04/24 04:26:16;;;;;;;1.75;1.63;;;21.20;40.80;;;;;;5005365;28;20420;-70
2021/04/24 04:28:43;;;;;;;1.90;1.80;;;21.20;40.70;;;;;;5003796;28;20793;-72
2021/04/24 04:31:09;;;;;;;2.60;2.10;;;21.20;41.00;;;;;;5005471;28;20451;-70
2021/04/24 04:33:36;;;;;;;2.80;1.60;;;21.10;40.80;;;;;;5005719;28;20419;-71
2021/04/24 04:36:04;;;;;;;1.50;1.30;;;21.10;40.90;;;;;;5005173;28;20429;-70
2021/04/24 04:38:30;;;;;;;2.28;2.00;;;21.10;41.00;;;;;;5004070;28;20506;-71
2021/04/24 04:40:56;;;;;;;1.70;1.60;;;21.10;41.10;;;;;;4995179;28;20418;-71
2021/04/24 04:43:23;;;;;;;1.38;1.38;;;21.10;41.00;;;;;;5005264;28;20411;-70
2021/04/24 04:45:50;;;;;;;1.75;1.60;;;21.10;41.00;;;;;;5006667;28;20420;-70
2021/04/24 04:48:16;;;;;;;1.60;1.50;;;21.00;40.90;;;;;;5005902;28;20423;-71
2021/04/24 04:50:42;;;;;;;1.50;1.40;;;21.10;40.70;;;;;;5003584;28;20444;-71
2021/04/24 04:53:08;;;;;;;1.95;1.85;;;21.10;41.10;;;;;;4999773;28;20466;-71
2021/04/24 04:55:35;;;;;;;3.90;1.70;;;21.10;40.90;;;;;;5007648;28;20512;-71
2021/04/24 04:58:01;;;;;;;1.80;1.70;;;21.10;40.80;;;;;;5006150;28;20440;-72
2021/04/24 05:00:27;;;;;;;1.48;1.33;;;21.10;40.80;;;;;;5004039;28;20419;-71
2021/04/24 05:02:54;;;;;;;3.20;2.00;;;21.10;40.90;;;;;;4998264;28;20433;-71
2021/04/24 05:05:21;;;;;;;1.40;1.30;;;21.10;41.70;;;;;;5015833;28;20424;-71
2021/04/24 05:07:49;;;;;;;2.50;1.60;;;21.10;40.90;;;;;;4996489;28;20425;-70
2021/04/24 05:10:15;;;;;;;1.53;1.43;;;21.10;40.80;;;;;;5004858;28;20428;-71
2021/04/24 05:12:43;;;;;;;1.20;1.20;;;21.10;40.90;;;;;;4993062;28;21272;-72
2021/04/24 05:15:10;;;;;;;1.60;1.50;;;21.10;41.70;;;;;;5010933;28;20421;-71
2021/04/24 05:17:36;;;;;;;1.45;1.35;;;21.20;41.50;;;;;;5002978;28;20469;-71
2021/04/24 05:20:04;;;;;;;1.90;1.70;;;21.20;40.50;;;;;;5005095;28;20416;-70
2021/04/24 05:22:30;;;;;;;2.90;1.80;;;21.30;40.40;;;;;;4995289;28;20427;-71
2021/04/24 05:24:57;;;;;;;1.60;1.50;;;21.40;40.20;;;;;;5005374;28;20892;-71
2021/04/24 05:27:23;;;;;;;2.45;1.60;;;21.40;40.10;;;;;;5008139;28;20419;-71
2021/04/24 05:29:49;;;;;;;2.10;1.40;;;21.50;40.10;;;;;;5007365;28;21007;-70
2021/04/24 05:32:16;;;;;;;1.60;1.40;;;21.50;39.90;;;;;;5005598;28;20439;-71
2021/04/24 05:34:42;;;;;;;1.40;1.30;;;21.50;39.90;;;;;;5013581;28;20415;-70
2021/04/24 05:37:09;;;;;;;1.93;1.60;;;21.50;39.90;;;;;;5010123;28;20416;-70
2021/04/24 05:39:35;;;;;;;1.60;1.50;;;21.60;40.00;;;;;;5008465;28;20953;-69
2021/04/24 05:42:01;;;;;;;2.92;1.65;;;21.50;39.90;;;;;;5007704;28;20964;-72
2021/04/24 05:44:27;;;;;;;1.75;1.42;;;21.50;39.90;;;;;;5003635;28;20419;-72
2021/04/24 05:46:54;;;;;;;1.40;1.27;;;21.50;40.00;;;;;;5008687;28;21862;-71
2021/04/24 05:49:20;;;;;;;1.70;1.60;;;21.40;40.10;;;;;;5008989;28;20813;-71
2021/04/24 05:51:46;;;;;;;1.60;1.50;;;21.40;40.30;;;;;;5006780;28;20790;-70
2021/04/24 05:54:13;;;;;;;1.75;1.65;;;21.30;40.30;;;;;;5008627;28;20995;-71
2021/04/24 05:56:39;;;;;;;1.83;1.20;;;21.30;40.30;;;;;;5009510;28;20836;-71
2021/04/24 05:59:05;;;;;;;1.55;1.45;;;21.30;40.40;;;;;;5008336;28;20430;-70
2021/04/24 06:01:31;;;;;;;1.60;1.50;;;21.30;40.50;;;;;;4995020;28;20456;-70
2021/04/24 06:03:57;;;;;;;1.83;1.73;;;21.30;40.50;;;;;;5005802;28;20415;-71
2021/04/24 06:06:23;;;;;;;1.80;1.70;;;21.30;40.40;;;;;;5007526;28;20418;-70
2021/04/24 06:08:50;;;;;;;3.13;1.60;;;21.30;40.50;;;;;;5006966;28;20446;-71
2021/04/24 06:11:17;;;;;;;1.27;1.20;;;21.30;40.40;;;;;;5009791;28;20796;-70
2021/04/24 06:13:43;;;;;;;1.80;1.30;;;21.40;40.50;;;;;;5007567;28;20425;-71
2021/04/24 06:16:12;;;;;;;2.97;1.77;;;21.40;40.30;;;;;;5006546;28;20420;-71
2021/04/24 06:18:38;;;;;;;3.10;1.58;;;21.40;40.20;;;;;;5007408;28;20434;-70
2021/04/24 06:21:04;;;;;;;2.90;1.60;;;21.40;40.10;;;;;;4998121;28;20415;-70
2021/04/24 06:23:30;;;;;;;1.60;1.50;;;21.50;40.20;;;;;;5005101;28;20419;-71
2021/04/24 06:25:57;;;;;;;2.40;1.40;;;21.50;40.10;;;;;;4996289;28;20434;-72
2021/04/24 06:28:24;;;;;;;2.03;1.60;;;21.50;39.90;;;;;;5002617;28;20417;-71
2021/04/24 06:30:50;;;;;;;1.48;1.38;;;21.60;40.00;;;;;;5015838;28;20419;-70
2021/04/24 06:33:16;;;;;;;1.50;1.40;;;21.60;40.00;;;;;;5008688;28;20443;-70
2021/04/24 06:35:42;;;;;;;1.70;1.30;;;21.50;39.90;;;;;;5007615;28;20477;-71
2021/04/24 06:38:08;;;;;;;1.60;1.50;;;21.50;40.00;;;;;;5006095;28;20427;-70
2021/04/24 06:40:35;;;;;;;1.48;1.20;;;21.50;40.10;;;;;;5004601;28;20747;-70
2021/04/24 06:43:01;;;;;;;1.92;1.58;;;21.50;40.20;;;;;;5015563;28;20784;-70
2021/04/24 06:45:28;;;;;;;1.75;1.42;;;21.50;40.10;;;;;;5008376;28;20810;-70
2021/04/24 06:47:54;;;;;;;2.22;1.45;;;21.60;40.10;;;;;;5008152;28;20518;-72
2021/04/24 06:50:20;;;;;;;2.10;1.40;;;21.50;40.10;;;;;;5007343;28;20413;-72
2021/04/24 06:52:46;;;;;;;2.40;1.30;;;21.60;40.10;;;;;;5006735;28;20943;-71
2021/04/24 06:55:13;;;;;;;2.20;2.00;;;21.50;39.80;;;;;;5005373;28;20416;-71
2021/04/24 06:57:39;;;;;;;1.30;1.20;;;21.60;39.90;;;;;;5006873;28;20413;-71
2021/04/24 07:00:06;;;;;;;3.00;1.80;;;21.60;40.00;;;;;;5006664;28;20419;-71
2021/04/24 07:02:34;;;;;;;2.15;1.70;;;21.50;39.90;;;;;;5006688;28;21140;-70
2021/04/24 07:05:00;;;;;;;2.20;1.53;;;21.50;39.90;;;;;;5005745;28;20404;-71
2021/04/24 07:07:26;;;;;;;2.60;1.70;;;21.60;40.10;;;;;;5008788;28;20953;-72
2021/04/24 07:09:52;;;;;;;1.77;1.50;;;21.50;40.10;;;;;;4996465;28;20530;-70
2021/04/24 07:12:18;;;;;;;3.78;1.77;;;21.50;40.10;;;;;;5007637;28;20417;-71
2021/04/24 07:14:45;;;;;;;3.88;1.80;;;21.40;40.20;;;;;;5006216;28;20417;-71
2021/04/24 07:17:11;;;;;;;3.33;1.70;;;21.50;40.30;;;;;;5003872;28;20463;-71
2021/04/24 07:19:38;;;;;;;1.90;1.35;;;21.50;40.30;;;;;;5004874;28;20416;-71
2021/04/24 07:22:04;;;;;;;2.58;1.67;;;21.50;40.30;;;;;;5006610;28;20411;-70
2021/04/24 07:24:30;;;;;;;4.55;1.50;;;21.50;40.30;;;;;;5007035;28;20423;-71
2021/04/24 07:26:56;;;;;;;3.85;1.70;;;21.50;40.30;;;;;;5007470;28;20426;-71
2021/04/24 07:29:22;;;;;;;3.17;1.60;;;21.50;40.40;;;;;;5001935;28;20495;-71
2021/04/24 07:31:49;;;;;;;3.30;1.60;;;21.50;40.30;;;;;;5007788;28;20491;-70
2021/04/24 07:34:15;;;;;;;1.60;1.40;;;21.50;40.30;;;;;;5006455;28;20413;-71
2021/04/24 07:36:42;;;;;;;1.80;1.35;;;21.50;40.30;;;;;;5008487;28;20428;-71
2021/04/24 07:39:08;;;;;;;2.25;1.40;;;21.50;40.30;;;;;;5005973;28;20463;-71
2021/04/24 07:41:34;;;;;;;1.57;1.43;;;21.50;40.30;;;;;;5006052;28;20473;-71
2021/04/24 07:44:00;;;;;;;6.05;2.20;;;21.50;40.20;;;;;;5006990;28;20434;-71
2021/04/24 07:46:27;;;;;;;3.90;1.40;;;21.50;40.20;;;;;;5006200;28;21202;-71
2021/04/24 07:48:53;;;;;;;3.15;2.00;;;21.50;40.10;;;;;;5004097;28;21538;-71
2021/04/24 07:51:19;;;;;;;3.60;1.30;;;21.50;40.20;;;;;;5006566;28;20824;-70
2021/04/24 07:53:46;;;;;;;4.75;1.52;;;21.50;40.30;;;;;;5006351;28;20428;-71
2021/04/24 07:56:12;;;;;;;1.90;1.60;;;21.50;40.20;;;;;;5001830;28;20434;-71
2021/04/24 07:58:38;;;;;;;4.65;1.90;;;21.50;40.10;;;;;;5014904;28;20424;-70
2021/04/24 08:01:04;;;;;;;2.90;1.40;;;21.50;40.20;;;;;;5002830;28;21163;-71
2021/04/24 08:03:30;;;;;;;2.90;1.40;;;21.50;40.10;;;;;;4995959;28;20427;-71
2021/04/24 08:05:56;;;;;;;3.15;1.50;;;21.50;40.20;;;;;;5005912;28;20559;-72
2021/04/24 08:08:23;;;;;;;2.72;1.40;;;21.50;40.20;;;;;;5005124;28;20413;-72
2021/04/24 08:10:50;;;;;;;1.20;1.20;;;21.50;40.20;;;;;;5006055;28;20433;-71
2021/04/24 08:13:16;;;;;;;4.55;1.80;;;21.40;40.10;;;;;;5004264;28;20416;-72
2021/04/24 08:15:42;;;;;;;2.17;1.40;;;21.40;40.00;;;;;;5005482;28;20424;-72
2021/04/24 08:18:08;;;;;;;2.20;1.50;;;21.50;40.20;;;;;;5005411;28;20919;-73
2021/04/24 08:20:34;;;;;;;2.05;1.05;;;21.50;40.30;;;;;;5005762;28;20430;-72
2021/04/24 08:23:01;;;;;;;1.88;1.35;;;21.50;40.30;;;;;;5005905;28;20426;-71
2021/04/24 08:25:27;;;;;;;1.73;1.53;;;21.50;40.20;;;;;;5006235;28;20454;-72
2021/04/24 08:27:54;;;;;;;1.92;1.40;;;21.50;40.10;;;;;;5032179;28;20409;-72
2021/04/24 08:30:20;;;;;;;2.95;1.40;;;21.50;40.20;;;;;;5032623;28;20412;-71
2021/04/24 08:32:47;;;;;;;2.88;1.30;;;21.50;40.10;;;;;;5034018;28;20403;-71
2021/04/24 08:35:13;;;;;;;2.30;1.43;;;21.60;40.20;;;;;;5004412;28;20420;-70
2021/04/24 08:37:40;;;;;;;3.10;1.70;;;21.60;40.10;;;;;;4997756;28;20436;-70
2021/04/24 08:40:07;;;;;;;1.70;1.50;;;21.60;40.20;;;;;;5001709;28;20422;-71
2021/04/24 08:42:33;;;;;;;3.83;1.50;;;21.60;40.10;;;;;;5005376;28;20851;-71
2021/04/24 08:45:00;;;;;;;2.72;1.33;;;21.60;40.30;;;;;;5003399;28;20453;-71
2021/04/24 08:47:27;;;;;;;1.40;1.30;;;21.50;40.20;;;;;;5010422;28;20540;-71
2021/04/24 08:49:54;;;;;;;2.15;1.42;;;21.50;40.30;;;;;;5001480;28;20507;-70
2021/04/24 08:52:21;;;;;;;1.70;1.30;;;21.50;40.10;;;;;;5002455;28;20442;-71
2021/04/24 08:54:47;;;;;;;1.83;1.20;;;21.50;40.20;;;;;;5011777;28;20489;-71
2021/04/24 08:57:14;;;;;;;5.60;1.60;;;21.50;40.30;;;;;;4992187;28;20420;-71
2021/04/24 08:59:40;;;;;;;3.88;1.40;;;21.50;40.10;;;;;;5005605;28;20444;-71
2021/04/24 09:02:07;;;;;;;1.38;1.00;;;21.60;40.20;;;;;;5009654;28;20426;-71
2021/04/24 09:04:33;;;;;;;2.20;1.47;;;21.60;40.20;;;;;;5007321;28;20415;-71
2021/04/24 09:06:59;;;;;;;1.77;1.00;;;21.60;40.00;;;;;;5007083;28;20412;-72
2021/04/24 09:09:27;;;;;;;3.38;1.17;;;21.60;40.20;;;;;;4987763;28;20428;-71
2021/04/24 09:11:56;;;;;;;1.87;1.20;;;21.60;40.20;;;;;;5006977;28;20413;-70
2021/04/24 09:14:22;;;;;;;1.60;1.20;;;21.50;40.10;;;;;;5004199;28;20432;-71
2021/04/24 09:16:50;;;;;;;2.23;1.30;;;21.50;40.10;;;;;;5009928;28;21068;-71
2021/04/24 09:19:30;;;;;;;3.20;1.20;;;21.50;40.10;;;;;;5006577;28;20437;-70
2021/04/24 09:22:11;;;;;;;3.28;1.48;;;21.50;40.10;;;;;;5009472;28;20426;-72
2021/04/24 09:24:37;;;;;;;2.43;1.23;;;21.50;40.10;;;;;;5007973;28;20419;-72
2021/04/24 09:27:03;;;;;;;2.07;1.50;;;21.50;40.00;;;;;;5009762;28;20415;-71
2021/04/24 09:29:29;;;;;;;1.83;1.13;;;21.50;39.90;;;;;;5007820;28;21165;-72
2021/04/24 09:32:11;;;;;;;1.85;0.80;;;21.50;40.10;;;;;;5010130;28;20415;-72
2021/04/24 09:34:39;;;;;;;2.03;1.50;;;21.50;40.80;;;;;;5001888;28;20407;-72
2021/04/24 09:37:05;;;;;;;4.38;1.40;;;21.50;39.80;;;;;;5028728;28;20417;-72
2021/04/24 09:39:36;;;;;;;1.40;1.10;;;21.50;39.90;;;;;;5032565;28;20440;-73
2021/04/24 09:42:02;;;;;;;3.20;1.20;;;21.50;39.20;;;;;;5020577;28;20421;-71
2021/04/24 09:44:28;;;;;;;2.08;1.30;;;21.50;39.90;;;;;;5005711;28;20414;-71
2021/04/24 09:46:56;;;;;;;1.80;1.10;;;21.50;40.10;;;;;;4982296;28;20418;-72
2021/04/24 09:49:24;;;;;;;1.40;1.13;;;21.50;39.90;;;;;;4999684;28;20418;-70
2021/04/24 09:51:52;;;;;;;1.23;1.00;;;21.50;39.60;;;;;;5001078;28;20454;-71
2021/04/24 09:54:19;;;;;;;2.63;1.50;;;21.50;40.10;;;;;;4996061;28;20413;-70
2021/04/24 09:56:55;;;;;;;2.25;1.42;;;21.50;40.10;;;;;;5004399;28;20432;-70
2021/04/24 09:59:21;;;;;;;2.00;1.40;;;21.50;39.70;;;;;;4998491;28;20424;-71
2021/04/24 10:01:47;;;;;;;2.13;1.10;;;21.50;40.00;;;;;;4999068;28;20425;-71
2021/04/24 10:04:13;;;;;;;1.40;1.30;;;21.50;39.90;;;;;;5001395;28;20872;-71
2021/04/24 10:06:40;;;;;;;1.50;1.10;;;21.50;40.00;;;;;;5007138;28;20793;-72
2021/04/24 10:09:22;;;;;;;1.35;1.20;;;21.40;40.10;;;;;;5005315;28;20422;-71
2021/04/24 10:11:50;;;;;;;1.20;1.10;;;21.40;39.50;;;;;;5005500;28;20449;-71
2021/04/24 10:14:30;;;;;;;1.10;1.00;;;21.40;40.00;;;;;;5007157;28;20413;-72
2021/04/24 10:16:57;;;;;;;1.70;1.30;;;21.40;39.80;;;;;;5009936;28;20417;-71
2021/04/24 10:19:23;;;;;;;1.02;0.90;;;21.40;39.70;;;;;;5011877;28;20423;-70
2021/04/24 10:21:49;;;;;;;1.45;0.80;;;21.40;39.80;;;;;;5008788;28;20955;-70
2021/04/24 10:24:16;;;;;;;1.90;0.98;;;21.40;39.60;;;;;;5007697;28;20789;-70
2021/04/24 10:26:43;;;;;;;2.60;1.10;;;21.40;40.00;;;;;;4999840;28;20906;-70
2021/04/24 10:29:10;;;;;;;1.10;1.00;;;21.40;40.10;;;;;;5019859;28;20461;-71
2021/04/24 10:31:36;;;;;;;1.17;1.17;;;21.40;40.00;;;;;;5007695;28;20422;-70
2021/04/24 10:34:04;;;;;;;1.65;1.10;;;21.50;40.20;;;;;;5003689;28;21030;-70
2021/04/24 10:36:30;;;;;;;1.90;1.00;;;21.50;40.10;;;;;;4987422;28;20423;-69
2021/04/24 10:38:57;;;;;;;1.10;1.00;;;21.50;39.90;;;;;;5007601;28;20860;-72
2021/04/24 10:41:30;;;;;;;1.20;1.10;;;21.50;40.00;;;;;;5006912;28;20413;-71
2021/04/24 10:44:00;;;;;;;2.20;1.20;;;21.50;40.10;;;;;;4999810;28;20500;-72
2021/04/24 10:46:31;;;;;;;0.95;0.90;;;21.50;39.90;;;;;;5028876;28;20437;-71
2021/04/24 10:49:14;;;;;;;2.30;1.10;;;21.50;40.10;;;;;;5012527;28;20404;-72
2021/04/24 10:51:58;;;;;;;1.10;1.10;;;21.50;40.00;;;;;;5001689;28;20433;-71
2021/04/24 10:54:24;;;;;;;1.10;0.97;;;21.50;40.20;;;;;;5010818;28;20811;-71
2021/04/24 10:56:51;;;;;;;1.00;0.90;;;21.50;40.30;;;;;;5007472;28;20797;-71
2021/04/24 10:59:18;;;;;;;1.88;1.10;;;21.50;40.30;;;;;;5008413;28;20502;-72
2021/04/24 11:02:07;;;;;;;1.00;0.90;;;21.50;40.30;;;;;;5007575;28;20411;-70
2021/04/24 11:04:41;;;;;;;1.08;0.98;;;21.50;40.20;;;;;;4986386;28;20485;-72
2021/04/24 11:07:24;;;;;;;1.40;0.80;;;21.50;40.00;;;;;;5006269;28;20873;-71
2021/04/24 11:10:28;;;;;;;1.10;1.00;;;21.50;39.80;;;;;;5006687;28;20423;-71
2021/04/24 11:12:57;;;;;;;1.20;1.00;;;21.60;40.10;;;;;;5002874;28;20404;-72
2021/04/24 11:15:24;;;;;;;1.40;0.90;;;21.50;40.10;;;;;;4995534;28;20442;-69
2021/04/24 11:17:50;;;;;;;1.10;1.00;;;21.50;40.00;;;;;;5005785;28;20475;-71
2021/04/24 11:20:52;;;;;;;1.70;1.20;;;21.50;40.10;;;;;;5006646;28;20421;-72
2021/04/24 11:23:40;;;;;;;1.10;0.90;;;21.50;40.00;;;;;;4999018;28;20474;-70
2021/04/24 11:26:07;;;;;;;1.90;1.10;;;21.40;40.10;;;;;;5004230;28;20899;-70
2021/04/24 11:28:35;;;;;;;1.00;0.90;;;21.40;40.10;;;;;;5006907;28;20422;-71
2021/04/24 11:31:02;;;;;;;0.90;0.90;;;21.40;40.10;;;;;;5003092;28;20476;-71
2021/04/24 11:33:35;;;;;;;1.30;0.73;;;21.40;40.30;;;;;;5007445;28;20418;-70
2021/04/24 11:36:15;;;;;;;0.75;0.75;;;21.40;40.30;;;;;;4996661;28;20973;-72
2021/04/24 11:39:12;;;;;;;1.60;1.00;;;21.40;40.30;;;;;;4990644;28;20421;-71
2021/04/24 11:41:39;;;;;;;1.37;1.03;;;21.40;40.40;;;;;;5005140;28;20465;-72
2021/04/24 11:44:48;;;;;;;2.00;1.10;;;21.40;40.30;;;;;;5006488;28;20412;-71
2021/04/24 11:47:14;;;;;;;0.90;0.90;;;21.50;40.30;;;;;;4970757;28;20419;-71
2021/04/24 11:49:50;;;;;;;1.42;0.95;;;21.50;40.20;;;;;;5000484;28;20429;-72
2021/04/24 11:52:16;;;;;;;0.90;0.90;;;21.50;40.30;;;;;;5005640;28;20448;-72
2021/04/24 11:54:42;;;;;;;0.80;0.80;;;21.50;40.10;;;;;;5006617;28;20428;-70
2021/04/24 11:57:09;;;;;;;1.40;0.90;;;21.50;40.10;;;;;;5005716;28;20970;-71
2021/04/24 11:59:36;;;;;;;0.80;0.80;;;21.50;40.20;;;;;;5005048;28;20430;-71
2021/04/24 12:02:14;;;;;;;1.00;0.77;;;21.50;40.20;;;;;;5005814;28;20547;-70
2021/04/24 12:04:41;;;;;;;0.90;0.90;;;21.40;40.10;;;;;;5005786;28;20405;-70
2021/04/24 12:07:08;;;;;;;0.90;0.70;;;21.40;40.30;;;;;;5006111;28;20415;-72
2021/04/24 12:09:48;;;;;;;0.88;0.88;;;21.40;40.20;;;;;;5005538;28;20423;-71
2021/04/24 12:12:14;;;;;;;1.40;0.80;;;21.40;40.20;;;;;;5006101;28;20494;-71
2021/04/24 12:14:41;;;;;;;0.80;0.80;;;21.30;39.60;;;;;;5005822;28;20427;-71
2021/04/24 12:17:08;;;;;;;0.98;0.90;;;21.30;39.90;;;;;;5005672;28;20933;-72
2021/04/24 12:19:36;;;;;;;0.90;0.68;;;21.30;39.80;;;;;;5006993;28;20426;-72
2021/04/24 12:22:14;;;;;;;0.80;0.80;;;21.30;40.30;;;;;;5006478;28;20440;-70
2021/04/24 12:24:53;;;;;;;0.90;0.90;;;21.30;40.20;;;;;;5008983;28;20495;-71
2021/04/24 12:27:27;;;;;;;0.90;0.70;;;21.30;40.50;;;;;;5002489;28;20435;-72
2021/04/24 12:29:53;;;;;;;1.00;0.95;;;21.30;40.30;;;;;;5012762;28;20422;-72
2021/04/24 12:32:21;;;;;;;0.80;0.70;;;21.30;39.90;;;;;;5004960;28;20425;-71
2021/04/24 12:34:48;;;;;;;2.00;0.80;;;21.30;40.50;;;;;;5005284;28;20848;-72
2021/04/24 12:37:17;;;;;;;0.60;0.60;;;21.30;40.50;;;;;;5005986;28;20429;-71
2021/04/24 12:39:44;;;;;;;0.80;0.80;;;21.30;40.60;;;;;;4993088;28;20417;-71
2021/04/24 12:42:11;;;;;;;1.10;0.73;;;21.30;40.60;;;;;;5009695;28;20426;-71
2021/04/24 12:44:37;;;;;;;0.90;0.90;;;21.40;40.70;;;;;;5011552;28;20420;-76
2021/04/24 12:47:03;;;;;;;1.60;0.80;;;21.40;40.40;;;;;;5003802;28;20409;-71
2021/04/24 12:49:30;;;;;;;0.90;0.90;;;21.50;40.20;;;;;;5001824;28;20415;-70
2021/04/24 12:52:01;;;;;;;1.88;0.90;;;21.50;40.20;;;;;;5001320;28;20422;-72